sensor_id;sensor_type;location;lat;lon;timestamp;P1;durP1;ratioP1;P2;durP2;ratioP2
19907;SDS011;10116;53.112;7.356;2022-12-16T00:00:00;6.60;;;6.00;;
19907;SDS011;10116;53.112;7.356;2022-12-16T00:02:26;7.27;;;6.27;;
19907;SDS011;10116;53.112;7.356;2022-12-16T00:04:51;6.80;;;6.10;;
19907;SDS011;10116;53.112;7.356;2022-12-16T00:07:17;6.77;;;6.07;;
19907;SDS011;10116;53.112;7.356;2022-12-16T00:09:42;6.60;;;6.00;;
19907;SDS011;10116;53.112;7.356;2022-12-16T00:12:08;7.47;;;6.77;;
19907;SDS011;10116;53.112;7.356;2022-12-16T00:14:34;7.13;;;6.03;;
19907;SDS011;10116;53.112;7.356;2022-12-16T00:16:59;6.50;;;5.90;;
19907;SDS011;10116;53.112;7.356;2022-12-16T00:19:25;5.93;;;5.43;;
19907;SDS011;10116;53.112;7.356;2022-12-16T00:21:50;6.67;;;6.07;;
19907;SDS011;10116;53.112;7.356;2022-12-16T00:24:16;6.90;;;6.27;;
19907;SDS011;10116;53.112;7.356;2022-12-16T00:26:41;6.70;;;6.00;;
19907;SDS011;10116;53.112;7.356;2022-12-16T00:29:07;6.50;;;5.90;;
19907;SDS011;10116;53.112;7.356;2022-12-16T00:31:35;6.20;;;5.57;;
19907;SDS011;10116;53.112;7.356;2022-12-16T00:34:00;7.43;;;6.73;;
19907;SDS011;10116;53.112;7.356;2022-12-16T00:36:26;6.27;;;5.73;;
19907;SDS011;10116;53.112;7.356;2022-12-16T00:38:51;6.90;;;6.30;;
19907;SDS011;10116;53.112;7.356;2022-12-16T00:41:17;6.43;;;5.83;;
19907;SDS011;10116;53.112;7.356;2022-12-16T00:43:43;6.87;;;6.27;;
19907;SDS011;10116;53.112;7.356;2022-12-16T00:46:08;6.47;;;5.97;;
19907;SDS011;10116;53.112;7.356;2022-12-16T00:48:34;7.27;;;6.57;;
19907;SDS011;10116;53.112;7.356;2022-12-16T00:51:00;6.00;;;5.50;;
19907;SDS011;10116;53.112;7.356;2022-12-16T00:53:25;7.30;;;6.60;;
19907;SDS011;10116;53.112;7.356;2022-12-16T00:55:54;7.27;;;6.50;;
19907;SDS011;10116;53.112;7.356;2022-12-16T00:58:32;6.60;;;6.00;;
19907;SDS011;10116;53.112;7.356;2022-12-16T01:00:58;7.20;;;6.60;;
19907;SDS011;10116;53.112;7.356;2022-12-16T01:03:24;8.60;;;5.40;;
19907;SDS011;10116;53.112;7.356;2022-12-16T01:05:49;6.20;;;5.70;;
19907;SDS011;10116;53.112;7.356;2022-12-16T01:08:15;7.37;;;6.67;;
19907;SDS011;10116;53.112;7.356;2022-12-16T01:10:41;6.77;;;6.27;;
19907;SDS011;10116;53.112;7.356;2022-12-16T01:13:06;8.47;;;6.60;;
19907;SDS011;10116;53.112;7.356;2022-12-16T01:15:32;7.97;;;7.17;;
19907;SDS011;10116;53.112;7.356;2022-12-16T01:17:58;7.03;;;6.33;;
19907;SDS011;10116;53.112;7.356;2022-12-16T01:20:23;6.90;;;6.30;;
19907;SDS011;10116;53.112;7.356;2022-12-16T01:22:49;6.67;;;6.10;;
19907;SDS011;10116;53.112;7.356;2022-12-16T01:25:14;8.60;;;7.70;;
19907;SDS011;10116;53.112;7.356;2022-12-16T01:27:41;7.57;;;6.77;;
19907;SDS011;10116;53.112;7.356;2022-12-16T01:30:07;8.30;;;7.57;;
19907;SDS011;10116;53.112;7.356;2022-12-16T01:32:34;7.37;;;6.63;;
19907;SDS011;10116;53.112;7.356;2022-12-16T01:35:00;9.87;;;7.03;;
19907;SDS011;10116;53.112;7.356;2022-12-16T01:37:26;7.60;;;6.90;;
19907;SDS011;10116;53.112;7.356;2022-12-16T01:39:51;8.00;;;7.20;;
19907;SDS011;10116;53.112;7.356;2022-12-16T01:42:19;7.00;;;6.40;;
19907;SDS011;10116;53.112;7.356;2022-12-16T01:44:47;6.70;;;6.10;;
19907;SDS011;10116;53.112;7.356;2022-12-16T01:47:15;7.90;;;7.10;;
19907;SDS011;10116;53.112;7.356;2022-12-16T01:49:49;6.80;;;6.23;;
19907;SDS011;10116;53.112;7.356;2022-12-16T01:52:20;7.10;;;6.50;;
19907;SDS011;10116;53.112;7.356;2022-12-16T01:54:51;7.43;;;6.73;;
19907;SDS011;10116;53.112;7.356;2022-12-16T01:57:26;7.40;;;6.70;;
19907;SDS011;10116;53.112;7.356;2022-12-16T01:59:59;7.10;;;6.40;;
19907;SDS011;10116;53.112;7.356;2022-12-16T02:02:25;7.80;;;7.00;;
19907;SDS011;10116;53.112;7.356;2022-12-16T02:04:51;7.57;;;6.87;;
19907;SDS011;10116;53.112;7.356;2022-12-16T02:07:36;7.00;;;6.40;;
19907;SDS011;10116;53.112;7.356;2022-12-16T02:10:02;6.83;;;6.20;;
19907;SDS011;10116;53.112;7.356;2022-12-16T02:12:41;7.77;;;6.97;;
19907;SDS011;10116;53.112;7.356;2022-12-16T02:26:23;7.20;;;6.60;;
19907;SDS011;10116;53.112;7.356;2022-12-16T02:34:37;7.60;;;7.00;;
19907;SDS011;10116;53.112;7.356;2022-12-16T02:39:50;7.10;;;6.50;;
19907;SDS011;10116;53.112;7.356;2022-12-16T02:47:28;7.30;;;6.60;;
19907;SDS011;10116;53.112;7.356;2022-12-16T02:49:55;7.90;;;6.73;;
19907;SDS011;10116;53.112;7.356;2022-12-16T02:52:25;7.60;;;6.90;;
19907;SDS011;10116;53.112;7.356;2022-12-16T02:54:54;8.60;;;7.73;;
19907;SDS011;10116;53.112;7.356;2022-12-16T02:57:58;7.40;;;6.70;;
19907;SDS011;10116;53.112;7.356;2022-12-16T03:00:22;7.67;;;6.93;;
19907;SDS011;10116;53.112;7.356;2022-12-16T03:05:28;7.70;;;6.90;;
19907;SDS011;10116;53.112;7.356;2022-12-16T03:08:04;8.50;;;7.60;;
19907;SDS011;10116;53.112;7.356;2022-12-16T03:10:38;7.70;;;6.90;;
19907;SDS011;10116;53.112;7.356;2022-12-16T03:13:11;8.30;;;7.50;;
19907;SDS011;10116;53.112;7.356;2022-12-16T03:15:38;8.10;;;7.30;;
19907;SDS011;10116;53.112;7.356;2022-12-16T03:18:08;8.80;;;7.60;;
19907;SDS011;10116;53.112;7.356;2022-12-16T03:20:35;8.40;;;7.47;;
19907;SDS011;10116;53.112;7.356;2022-12-16T03:23:11;8.10;;;7.30;;
19907;SDS011;10116;53.112;7.356;2022-12-16T03:25:42;8.97;;;8.07;;
19907;SDS011;10116;53.112;7.356;2022-12-16T03:30:52;7.60;;;6.80;;
19907;SDS011;10116;53.112;7.356;2022-12-16T03:33:28;8.70;;;7.90;;
19907;SDS011;10116;53.112;7.356;2022-12-16T03:36:05;9.57;;;8.27;;
19907;SDS011;10116;53.112;7.356;2022-12-16T03:38:51;9.17;;;8.17;;
19907;SDS011;10116;53.112;7.356;2022-12-16T03:41:19;8.40;;;7.60;;
19907;SDS011;10116;53.112;7.356;2022-12-16T03:43:47;7.67;;;6.93;;
19907;SDS011;10116;53.112;7.356;2022-12-16T03:46:14;8.33;;;7.50;;
19907;SDS011;10116;53.112;7.356;2022-12-16T03:48:45;10.47;;;7.47;;
19907;SDS011;10116;53.112;7.356;2022-12-16T03:51:15;9.77;;;8.73;;
19907;SDS011;10116;53.112;7.356;2022-12-16T03:53:41;8.83;;;7.77;;
19907;SDS011;10116;53.112;7.356;2022-12-16T03:56:06;10.20;;;9.23;;
19907;SDS011;10116;53.112;7.356;2022-12-16T03:58:32;8.30;;;7.47;;
19907;SDS011;10116;53.112;7.356;2022-12-16T04:00:59;9.30;;;8.30;;
19907;SDS011;10116;53.112;7.356;2022-12-16T04:03:25;8.33;;;7.50;;
19907;SDS011;10116;53.112;7.356;2022-12-16T04:05:51;8.37;;;7.57;;
19907;SDS011;10116;53.112;7.356;2022-12-16T04:08:16;8.13;;;7.40;;
19907;SDS011;10116;53.112;7.356;2022-12-16T04:10:42;8.80;;;7.90;;
19907;SDS011;10116;53.112;7.356;2022-12-16T04:13:26;8.53;;;7.67;;
19907;SDS011;10116;53.112;7.356;2022-12-16T04:16:14;10.40;;;7.90;;
19907;SDS011;10116;53.112;7.356;2022-12-16T04:18:59;8.23;;;7.53;;
19907;SDS011;10116;53.112;7.356;2022-12-16T04:21:45;9.13;;;8.27;;
19907;SDS011;10116;53.112;7.356;2022-12-16T04:24:29;8.40;;;7.60;;
19907;SDS011;10116;53.112;7.356;2022-12-16T04:26:55;8.73;;;7.83;;
19907;SDS011;10116;53.112;7.356;2022-12-16T04:29:40;8.27;;;7.47;;
19907;SDS011;10116;53.112;7.356;2022-12-16T04:32:24;9.60;;;8.70;;
19907;SDS011;10116;53.112;7.356;2022-12-16T04:34:50;8.70;;;7.80;;
19907;SDS011;10116;53.112;7.356;2022-12-16T04:37:17;8.67;;;7.77;;
19907;SDS011;10116;53.112;7.356;2022-12-16T04:40:01;9.30;;;7.97;;
19907;SDS011;10116;53.112;7.356;2022-12-16T04:42:46;10.20;;;7.80;;
19907;SDS011;10116;53.112;7.356;2022-12-16T04:45:30;8.40;;;7.60;;
19907;SDS011;10116;53.112;7.356;2022-12-16T04:48:16;10.20;;;8.73;;
19907;SDS011;10116;53.112;7.356;2022-12-16T04:51:00;9.30;;;8.30;;
19907;SDS011;10116;53.112;7.356;2022-12-16T04:53:44;10.87;;;9.10;;
19907;SDS011;10116;53.112;7.356;2022-12-16T04:56:28;9.80;;;8.80;;
19907;SDS011;10116;53.112;7.356;2022-12-16T04:59:12;9.00;;;8.20;;
19907;SDS011;10116;53.112;7.356;2022-12-16T05:01:56;8.97;;;8.07;;
19907;SDS011;10116;53.112;7.356;2022-12-16T05:04:40;10.87;;;9.00;;
19907;SDS011;10116;53.112;7.356;2022-12-16T05:07:25;9.10;;;8.20;;
19907;SDS011;10116;53.112;7.356;2022-12-16T05:10:09;10.10;;;9.10;;
19907;SDS011;10116;53.112;7.356;2022-12-16T05:12:53;11.37;;;10.00;;
19907;SDS011;10116;53.112;7.356;2022-12-16T05:15:38;11.03;;;9.27;;
19907;SDS011;10116;53.112;7.356;2022-12-16T05:18:22;9.93;;;8.90;;
19907;SDS011;10116;53.112;7.356;2022-12-16T05:21:06;12.00;;;9.27;;
19907;SDS011;10116;53.112;7.356;2022-12-16T05:23:50;12.83;;;11.00;;
19907;SDS011;10116;53.112;7.356;2022-12-16T05:26:34;11.93;;;10.23;;
19907;SDS011;10116;53.112;7.356;2022-12-16T05:29:18;13.10;;;10.90;;
19907;SDS011;10116;53.112;7.356;2022-12-16T05:32:02;17.57;;;11.50;;
19907;SDS011;10116;53.112;7.356;2022-12-16T05:34:47;11.10;;;10.03;;
19907;SDS011;10116;53.112;7.356;2022-12-16T05:37:31;17.73;;;11.80;;
19907;SDS011;10116;53.112;7.356;2022-12-16T05:40:15;13.27;;;11.53;;
19907;SDS011;10116;53.112;7.356;2022-12-16T05:42:59;12.93;;;11.63;;
19907;SDS011;10116;53.112;7.356;2022-12-16T05:45:43;13.63;;;10.87;;
19907;SDS011;10116;53.112;7.356;2022-12-16T05:48:27;14.90;;;10.83;;
19907;SDS011;10116;53.112;7.356;2022-12-16T05:51:11;13.23;;;11.20;;
19907;SDS011;10116;53.112;7.356;2022-12-16T05:53:55;14.07;;;11.27;;
19907;SDS011;10116;53.112;7.356;2022-12-16T05:56:39;12.63;;;11.17;;
19907;SDS011;10116;53.112;7.356;2022-12-16T05:59:24;13.40;;;11.67;;
19907;SDS011;10116;53.112;7.356;2022-12-16T06:02:08;11.47;;;10.27;;
19907;SDS011;10116;53.112;7.356;2022-12-16T06:04:52;13.40;;;11.00;;
19907;SDS011;10116;53.112;7.356;2022-12-16T06:07:37;15.87;;;12.50;;
19907;SDS011;10116;53.112;7.356;2022-12-16T06:10:21;13.73;;;11.83;;
19907;SDS011;10116;53.112;7.356;2022-12-16T06:13:05;14.40;;;12.07;;
19907;SDS011;10116;53.112;7.356;2022-12-16T06:15:49;17.27;;;12.43;;
19907;SDS011;10116;53.112;7.356;2022-12-16T06:18:33;19.07;;;13.83;;
19907;SDS011;10116;53.112;7.356;2022-12-16T06:21:17;15.63;;;12.70;;
19907;SDS011;10116;53.112;7.356;2022-12-16T06:24:01;16.53;;;12.90;;
19907;SDS011;10116;53.112;7.356;2022-12-16T06:26:45;17.30;;;13.33;;
19907;SDS011;10116;53.112;7.356;2022-12-16T06:29:29;14.70;;;12.43;;
19907;SDS011;10116;53.112;7.356;2022-12-16T06:32:13;15.57;;;12.63;;
19907;SDS011;10116;53.112;7.356;2022-12-16T06:34:57;17.90;;;12.43;;
19907;SDS011;10116;53.112;7.356;2022-12-16T06:37:41;16.70;;;12.23;;
19907;SDS011;10116;53.112;7.356;2022-12-16T06:40:29;14.57;;;11.93;;
19907;SDS011;10116;53.112;7.356;2022-12-16T06:43:13;14.97;;;11.77;;
19907;SDS011;10116;53.112;7.356;2022-12-16T06:45:57;17.00;;;12.33;;
19907;SDS011;10116;53.112;7.356;2022-12-16T06:48:41;15.73;;;12.50;;
19907;SDS011;10116;53.112;7.356;2022-12-16T06:51:25;19.13;;;12.27;;
19907;SDS011;10116;53.112;7.356;2022-12-16T06:54:09;18.93;;;12.50;;
19907;SDS011;10116;53.112;7.356;2022-12-16T06:56:53;17.83;;;12.90;;
19907;SDS011;10116;53.112;7.356;2022-12-16T06:59:37;12.73;;;11.40;;
19907;SDS011;10116;53.112;7.356;2022-12-16T07:02:21;16.10;;;11.97;;
19907;SDS011;10116;53.112;7.356;2022-12-16T07:05:05;17.90;;;12.53;;
19907;SDS011;10116;53.112;7.356;2022-12-16T07:07:50;14.77;;;11.80;;
19907;SDS011;10116;53.112;7.356;2022-12-16T07:10:34;22.20;;;12.87;;
19907;SDS011;10116;53.112;7.356;2022-12-16T07:13:20;14.37;;;11.33;;
19907;SDS011;10116;53.112;7.356;2022-12-16T07:16:04;17.90;;;13.43;;
19907;SDS011;10116;53.112;7.356;2022-12-16T07:18:48;15.80;;;12.90;;
19907;SDS011;10116;53.112;7.356;2022-12-16T07:21:32;16.43;;;12.13;;
19907;SDS011;10116;53.112;7.356;2022-12-16T07:24:16;17.23;;;13.47;;
19907;SDS011;10116;53.112;7.356;2022-12-16T07:27:01;23.07;;;13.47;;
19907;SDS011;10116;53.112;7.356;2022-12-16T07:29:45;18.33;;;13.27;;
19907;SDS011;10116;53.112;7.356;2022-12-16T07:32:29;18.77;;;13.80;;
19907;SDS011;10116;53.112;7.356;2022-12-16T07:35:13;21.20;;;13.43;;
19907;SDS011;10116;53.112;7.356;2022-12-16T07:37:57;20.80;;;13.73;;
19907;SDS011;10116;53.112;7.356;2022-12-16T07:40:41;21.93;;;15.00;;
19907;SDS011;10116;53.112;7.356;2022-12-16T07:43:25;27.37;;;15.77;;
19907;SDS011;10116;53.112;7.356;2022-12-16T07:46:09;23.70;;;15.87;;
19907;SDS011;10116;53.112;7.356;2022-12-16T07:48:53;24.80;;;15.70;;
19907;SDS011;10116;53.112;7.356;2022-12-16T07:51:37;22.70;;;15.10;;
19907;SDS011;10116;53.112;7.356;2022-12-16T07:54:21;26.00;;;16.37;;
19907;SDS011;10116;53.112;7.356;2022-12-16T07:57:06;26.00;;;16.67;;
19907;SDS011;10116;53.112;7.356;2022-12-16T07:59:50;24.93;;;16.80;;
19907;SDS011;10116;53.112;7.356;2022-12-16T08:02:34;25.40;;;16.80;;
19907;SDS011;10116;53.112;7.356;2022-12-16T08:05:18;26.40;;;16.53;;
19907;SDS011;10116;53.112;7.356;2022-12-16T08:08:02;23.53;;;15.47;;
19907;SDS011;10116;53.112;7.356;2022-12-16T08:10:46;30.70;;;18.27;;
19907;SDS011;10116;53.112;7.356;2022-12-16T08:13:30;27.70;;;16.77;;
19907;SDS011;10116;53.112;7.356;2022-12-16T08:16:14;27.07;;;17.33;;
19907;SDS011;10116;53.112;7.356;2022-12-16T08:18:58;30.17;;;17.03;;
19907;SDS011;10116;53.112;7.356;2022-12-16T08:21:42;25.90;;;16.83;;
19907;SDS011;10116;53.112;7.356;2022-12-16T08:24:26;29.47;;;18.30;;
19907;SDS011;10116;53.112;7.356;2022-12-16T08:27:10;27.37;;;17.50;;
19907;SDS011;10116;53.112;7.356;2022-12-16T08:29:54;28.77;;;17.90;;
19907;SDS011;10116;53.112;7.356;2022-12-16T08:32:38;26.50;;;18.30;;
19907;SDS011;10116;53.112;7.356;2022-12-16T08:35:22;28.97;;;18.43;;
19907;SDS011;10116;53.112;7.356;2022-12-16T08:38:07;31.13;;;19.60;;
19907;SDS011;10116;53.112;7.356;2022-12-16T08:40:53;35.97;;;19.17;;
19907;SDS011;10116;53.112;7.356;2022-12-16T08:43:37;38.83;;;19.93;;
19907;SDS011;10116;53.112;7.356;2022-12-16T08:46:21;30.97;;;19.03;;
19907;SDS011;10116;53.112;7.356;2022-12-16T08:49:06;32.20;;;19.27;;
19907;SDS011;10116;53.112;7.356;2022-12-16T08:51:50;33.47;;;19.33;;
19907;SDS011;10116;53.112;7.356;2022-12-16T08:54:34;37.43;;;20.60;;
19907;SDS011;10116;53.112;7.356;2022-12-16T08:57:18;33.07;;;20.67;;
19907;SDS011;10116;53.112;7.356;2022-12-16T09:00:03;34.80;;;19.70;;
19907;SDS011;10116;53.112;7.356;2022-12-16T09:02:51;36.77;;;20.03;;
19907;SDS011;10116;53.112;7.356;2022-12-16T09:05:39;34.37;;;20.43;;
19907;SDS011;10116;53.112;7.356;2022-12-16T09:08:23;44.40;;;21.23;;
19907;SDS011;10116;53.112;7.356;2022-12-16T09:11:08;37.20;;;20.60;;
19907;SDS011;10116;53.112;7.356;2022-12-16T09:13:52;36.90;;;19.80;;
19907;SDS011;10116;53.112;7.356;2022-12-16T09:16:36;30.47;;;19.23;;
19907;SDS011;10116;53.112;7.356;2022-12-16T09:19:20;32.93;;;19.80;;
19907;SDS011;10116;53.112;7.356;2022-12-16T09:22:04;40.17;;;20.27;;
19907;SDS011;10116;53.112;7.356;2022-12-16T09:24:48;33.83;;;20.40;;
19907;SDS011;10116;53.112;7.356;2022-12-16T09:27:36;31.00;;;19.70;;
19907;SDS011;10116;53.112;7.356;2022-12-16T09:30:20;30.27;;;19.13;;
19907;SDS011;10116;53.112;7.356;2022-12-16T09:33:04;35.70;;;20.07;;
19907;SDS011;10116;53.112;7.356;2022-12-16T09:35:48;37.47;;;20.33;;
19907;SDS011;10116;53.112;7.356;2022-12-16T09:38:32;35.90;;;20.70;;
19907;SDS011;10116;53.112;7.356;2022-12-16T09:44:27;38.43;;;21.33;;
19907;SDS011;10116;53.112;7.356;2022-12-16T09:51:03;36.00;;;19.67;;
19907;SDS011;10116;53.112;7.356;2022-12-16T09:53:50;37.10;;;20.90;;
19907;SDS011;10116;53.112;7.356;2022-12-16T09:56:36;38.20;;;20.20;;
19907;SDS011;10116;53.112;7.356;2022-12-16T09:59:29;32.40;;;18.87;;
19907;SDS011;10116;53.112;7.356;2022-12-16T10:02:16;33.07;;;20.27;;
19907;SDS011;10116;53.112;7.356;2022-12-16T10:05:04;36.97;;;20.60;;
19907;SDS011;10116;53.112;7.356;2022-12-16T10:08:05;39.10;;;20.70;;
19907;SDS011;10116;53.112;7.356;2022-12-16T10:11:14;35.83;;;20.40;;
19907;SDS011;10116;53.112;7.356;2022-12-16T10:14:06;36.43;;;20.47;;
19907;SDS011;10116;53.112;7.356;2022-12-16T10:17:17;37.53;;;20.40;;
19907;SDS011;10116;53.112;7.356;2022-12-16T10:20:06;37.43;;;20.10;;
19907;SDS011;10116;53.112;7.356;2022-12-16T10:23:34;33.70;;;18.20;;
19907;SDS011;10116;53.112;7.356;2022-12-16T10:26:43;27.40;;;17.00;;
19907;SDS011;10116;53.112;7.356;2022-12-16T10:29:32;34.43;;;17.70;;
19907;SDS011;10116;53.112;7.356;2022-12-16T10:32:43;27.80;;;17.30;;
19907;SDS011;10116;53.112;7.356;2022-12-16T10:38:29;33.00;;;17.80;;
19907;SDS011;10116;53.112;7.356;2022-12-16T10:41:24;27.47;;;16.80;;
19907;SDS011;10116;53.112;7.356;2022-12-16T10:44:15;28.93;;;17.53;;
19907;SDS011;10116;53.112;7.356;2022-12-16T10:47:11;29.50;;;17.40;;
19907;SDS011;10116;53.112;7.356;2022-12-16T10:49:56;25.47;;;17.00;;
19907;SDS011;10116;53.112;7.356;2022-12-16T10:52:57;24.03;;;16.47;;
19907;SDS011;10116;53.112;7.356;2022-12-16T10:55:47;30.20;;;17.93;;
19907;SDS011;10116;53.112;7.356;2022-12-16T10:58:52;24.40;;;15.97;;
19907;SDS011;10116;53.112;7.356;2022-12-16T11:01:38;24.43;;;15.73;;
19907;SDS011;10116;53.112;7.356;2022-12-16T11:10:25;27.47;;;16.53;;
19907;SDS011;10116;53.112;7.356;2022-12-16T11:13:22;24.10;;;15.60;;
19907;SDS011;10116;53.112;7.356;2022-12-16T11:16:08;22.80;;;16.53;;
19907;SDS011;10116;53.112;7.356;2022-12-16T11:19:03;23.30;;;15.67;;
19907;SDS011;10116;53.112;7.356;2022-12-16T11:21:48;25.27;;;15.50;;
19907;SDS011;10116;53.112;7.356;2022-12-16T11:24:32;22.30;;;15.90;;
19907;SDS011;10116;53.112;7.356;2022-12-16T11:30:24;19.00;;;15.37;;
19907;SDS011;10116;53.112;7.356;2022-12-16T11:33:13;24.00;;;15.63;;
19907;SDS011;10116;53.112;7.356;2022-12-16T11:36:26;17.90;;;14.30;;
19907;SDS011;10116;53.112;7.356;2022-12-16T11:39:14;19.83;;;14.57;;
19907;SDS011;10116;53.112;7.356;2022-12-16T11:42:04;22.07;;;14.93;;
19907;SDS011;10116;53.112;7.356;2022-12-16T11:44:57;23.33;;;15.57;;
19907;SDS011;10116;53.112;7.356;2022-12-16T11:47:45;19.30;;;14.43;;
19907;SDS011;10116;53.112;7.356;2022-12-16T11:50:37;18.97;;;13.77;;
19907;SDS011;10116;53.112;7.356;2022-12-16T11:53:29;20.33;;;14.10;;
19907;SDS011;10116;53.112;7.356;2022-12-16T11:56:14;18.40;;;13.80;;
19907;SDS011;10116;53.112;7.356;2022-12-16T12:02:38;23.63;;;14.57;;
19907;SDS011;10116;53.112;7.356;2022-12-16T12:05:34;17.10;;;14.50;;
19907;SDS011;10116;53.112;7.356;2022-12-16T12:08:28;20.47;;;15.40;;
19907;SDS011;10116;53.112;7.356;2022-12-16T12:14:56;17.57;;;13.67;;
19907;SDS011;10116;53.112;7.356;2022-12-16T12:21:25;15.50;;;12.83;;
19907;SDS011;10116;53.112;7.356;2022-12-16T12:27:15;20.40;;;13.60;;
19907;SDS011;10116;53.112;7.356;2022-12-16T12:30:18;16.07;;;13.03;;
19907;SDS011;10116;53.112;7.356;2022-12-16T12:35:55;16.23;;;13.67;;
19907;SDS011;10116;53.112;7.356;2022-12-16T12:42:11;17.73;;;13.90;;
19907;SDS011;10116;53.112;7.356;2022-12-16T12:48:05;17.17;;;14.00;;
19907;SDS011;10116;53.112;7.356;2022-12-16T12:53:56;17.20;;;13.40;;
19907;SDS011;10116;53.112;7.356;2022-12-16T12:56:57;15.10;;;13.60;;
19907;SDS011;10116;53.112;7.356;2022-12-16T13:02:58;17.33;;;14.63;;
19907;SDS011;10116;53.112;7.356;2022-12-16T13:05:57;17.53;;;14.50;;
19907;SDS011;10116;53.112;7.356;2022-12-16T13:11:34;20.70;;;14.37;;
19907;SDS011;10116;53.112;7.356;2022-12-16T13:17:29;17.27;;;14.17;;
19907;SDS011;10116;53.112;7.356;2022-12-16T13:20:42;15.50;;;13.50;;
19907;SDS011;10116;53.112;7.356;2022-12-16T13:23:29;15.33;;;13.50;;
19907;SDS011;10116;53.112;7.356;2022-12-16T13:26:15;20.60;;;15.00;;
19907;SDS011;10116;53.112;7.356;2022-12-16T13:32:14;20.10;;;15.10;;
19907;SDS011;10116;53.112;7.356;2022-12-16T13:35:12;16.10;;;13.03;;
19907;SDS011;10116;53.112;7.356;2022-12-16T13:38:18;17.13;;;13.90;;
19907;SDS011;10116;53.112;7.356;2022-12-16T13:41:50;18.63;;;14.60;;
19907;SDS011;10116;53.112;7.356;2022-12-16T13:44:08;15.43;;;13.67;;
19907;SDS011;10116;53.112;7.356;2022-12-16T13:46:52;16.83;;;13.27;;
19907;SDS011;10116;53.112;7.356;2022-12-16T13:49:39;19.70;;;13.97;;
19907;SDS011;10116;53.112;7.356;2022-12-16T13:52:43;16.17;;;13.60;;
19907;SDS011;10116;53.112;7.356;2022-12-16T13:55:53;16.90;;;13.47;;
19907;SDS011;10116;53.112;7.356;2022-12-16T13:58:40;15.60;;;14.00;;
19907;SDS011;10116;53.112;7.356;2022-12-16T14:04:45;17.73;;;13.60;;
19907;SDS011;10116;53.112;7.356;2022-12-16T14:07:32;15.73;;;13.50;;
19907;SDS011;10116;53.112;7.356;2022-12-16T14:25:56;16.97;;;13.93;;
19907;SDS011;10116;53.112;7.356;2022-12-16T14:28:41;17.30;;;14.27;;
19907;SDS011;10116;53.112;7.356;2022-12-16T14:31:29;17.17;;;14.40;;
19907;SDS011;10116;53.112;7.356;2022-12-16T14:34:29;16.93;;;14.77;;
19907;SDS011;10116;53.112;7.356;2022-12-16T14:37:19;16.90;;;14.17;;
19907;SDS011;10116;53.112;7.356;2022-12-16T14:40:29;15.57;;;13.97;;
19907;SDS011;10116;53.112;7.356;2022-12-16T14:43:15;15.63;;;13.63;;
19907;SDS011;10116;53.112;7.356;2022-12-16T14:46:05;17.90;;;15.03;;
19907;SDS011;10116;53.112;7.356;2022-12-16T14:49:12;16.20;;;14.00;;
19907;SDS011;10116;53.112;7.356;2022-12-16T14:52:11;17.33;;;14.50;;
19907;SDS011;10116;53.112;7.356;2022-12-16T14:55:15;17.60;;;14.93;;
19907;SDS011;10116;53.112;7.356;2022-12-16T14:58:22;18.10;;;14.97;;
19907;SDS011;10116;53.112;7.356;2022-12-16T15:01:27;16.23;;;14.50;;
19907;SDS011;10116;53.112;7.356;2022-12-16T15:04:15;17.37;;;14.90;;
19907;SDS011;10116;53.112;7.356;2022-12-16T15:07:05;17.37;;;15.00;;
19907;SDS011;10116;53.112;7.356;2022-12-16T15:09:54;19.40;;;15.00;;
19907;SDS011;10116;53.112;7.356;2022-12-16T15:12:40;15.83;;;13.87;;
19907;SDS011;10116;53.112;7.356;2022-12-16T15:15:30;17.90;;;15.13;;
19907;SDS011;10116;53.112;7.356;2022-12-16T15:18:20;18.10;;;14.80;;
19907;SDS011;10116;53.112;7.356;2022-12-16T15:21:08;18.83;;;16.00;;
19907;SDS011;10116;53.112;7.356;2022-12-16T15:23:52;18.20;;;15.30;;
19907;SDS011;10116;53.112;7.356;2022-12-16T15:26:37;19.83;;;15.73;;
19907;SDS011;10116;53.112;7.356;2022-12-16T15:29:32;18.63;;;15.93;;
19907;SDS011;10116;53.112;7.356;2022-12-16T15:40:57;16.93;;;15.13;;
19907;SDS011;10116;53.112;7.356;2022-12-16T15:43:43;15.37;;;13.77;;
19907;SDS011;10116;53.112;7.356;2022-12-16T15:46:29;16.67;;;14.90;;
19907;SDS011;10116;53.112;7.356;2022-12-16T15:49:27;17.90;;;15.37;;
19907;SDS011;10116;53.112;7.356;2022-12-16T15:55:39;16.60;;;14.70;;
19907;SDS011;10116;53.112;7.356;2022-12-16T16:01:19;15.80;;;13.90;;
19907;SDS011;10116;53.112;7.356;2022-12-16T16:04:16;17.10;;;14.77;;
19907;SDS011;10116;53.112;7.356;2022-12-16T16:07:07;15.77;;;13.93;;
19907;SDS011;10116;53.112;7.356;2022-12-16T16:10:16;17.50;;;13.40;;
19907;SDS011;10116;53.112;7.356;2022-12-16T16:13:05;15.17;;;13.43;;
19907;SDS011;10116;53.112;7.356;2022-12-16T16:15:50;17.00;;;13.40;;
19907;SDS011;10116;53.112;7.356;2022-12-16T16:18:35;17.30;;;14.50;;
19907;SDS011;10116;53.112;7.356;2022-12-16T16:21:19;15.13;;;13.30;;
19907;SDS011;10116;53.112;7.356;2022-12-16T16:24:04;15.40;;;12.80;;
19907;SDS011;10116;53.112;7.356;2022-12-16T16:26:48;16.60;;;13.33;;
19907;SDS011;10116;53.112;7.356;2022-12-16T16:29:32;14.80;;;13.20;;
19907;SDS011;10116;53.112;7.356;2022-12-16T16:32:16;14.43;;;12.90;;
19907;SDS011;10116;53.112;7.356;2022-12-16T16:35:00;15.20;;;13.60;;
19907;SDS011;10116;53.112;7.356;2022-12-16T16:37:44;14.50;;;12.93;;
19907;SDS011;10116;53.112;7.356;2022-12-16T16:40:33;15.27;;;13.63;;
19907;SDS011;10116;53.112;7.356;2022-12-16T16:43:23;15.83;;;13.40;;
19907;SDS011;10116;53.112;7.356;2022-12-16T16:49:18;16.00;;;13.73;;
19907;SDS011;10116;53.112;7.356;2022-12-16T16:52:27;25.63;;;13.43;;
19907;SDS011;10116;53.112;7.356;2022-12-16T16:55:15;15.37;;;13.47;;
19907;SDS011;10116;53.112;7.356;2022-12-16T16:58:00;16.20;;;13.63;;
19907;SDS011;10116;53.112;7.356;2022-12-16T17:00:49;21.87;;;13.03;;
19907;SDS011;10116;53.112;7.356;2022-12-16T17:03:33;16.07;;;13.40;;
19907;SDS011;10116;53.112;7.356;2022-12-16T17:06:17;14.80;;;12.30;;
19907;SDS011;10116;53.112;7.356;2022-12-16T17:09:02;21.90;;;13.17;;
19907;SDS011;10116;53.112;7.356;2022-12-16T17:11:46;17.30;;;13.53;;
19907;SDS011;10116;53.112;7.356;2022-12-16T17:14:30;16.60;;;13.50;;
19907;SDS011;10116;53.112;7.356;2022-12-16T17:17:14;16.67;;;13.13;;
19907;SDS011;10116;53.112;7.356;2022-12-16T17:19:58;14.33;;;12.50;;
19907;SDS011;10116;53.112;7.356;2022-12-16T17:22:42;20.43;;;12.67;;
19907;SDS011;10116;53.112;7.356;2022-12-16T17:25:27;15.87;;;12.93;;
19907;SDS011;10116;53.112;7.356;2022-12-16T17:28:11;18.10;;;12.67;;
19907;SDS011;10116;53.112;7.356;2022-12-16T17:30:55;16.53;;;13.70;;
19907;SDS011;10116;53.112;7.356;2022-12-16T17:33:39;14.40;;;12.90;;
19907;SDS011;10116;53.112;7.356;2022-12-16T17:36:23;14.23;;;12.73;;
19907;SDS011;10116;53.112;7.356;2022-12-16T17:39:07;13.90;;;12.40;;
19907;SDS011;10116;53.112;7.356;2022-12-16T17:41:53;14.93;;;13.33;;
19907;SDS011;10116;53.112;7.356;2022-12-16T17:44:38;13.00;;;11.70;;
19907;SDS011;10116;53.112;7.356;2022-12-16T17:47:21;14.53;;;12.63;;
19907;SDS011;10116;53.112;7.356;2022-12-16T17:50:06;12.43;;;11.13;;
19907;SDS011;10116;53.112;7.356;2022-12-16T17:52:54;12.97;;;11.67;;
19907;SDS011;10116;53.112;7.356;2022-12-16T17:55:38;14.83;;;13.30;;
19907;SDS011;10116;53.112;7.356;2022-12-16T17:58:30;14.77;;;13.20;;
19907;SDS011;10116;53.112;7.356;2022-12-16T18:01:15;12.87;;;11.60;;
19907;SDS011;10116;53.112;7.356;2022-12-16T18:03:59;13.53;;;12.23;;